Race Results for
Brooksville Cycling Classic
Brooksville, FL
(Event Information)
Road Race on 10/20/2012

Note: Ranking points are NOT upgrade points. An explanation of ranking points can be found here.


Men - Pro 1-2

 Place Points NameCity, StateTime USAC #BibTeam
1159.96Miguel Bryon   Miami, FL2:38:05 290219  BLUE STAR-BOOM Development Team
2166.89Ken Vida   Lithia, FL2:38:05 60148  Florida Velo
3173.82Ricardo Perez   Miami, FL2:38:05 360295  BLUE STAR-BOOM Development Team
4180.75Derek Schanze   Gainesville, FL2:38:06 252844  26 GearLink Racing INC.
5187.68Steven Perezluha   Longwood, FL2:38:06 311519  24 Unattached
6194.61Mark Hyatt   Arlington, VA2:38:07 359191  National Capital Velo Club/UnitedHealthcare
7201.54Jonathan Bowerman   Tampa, FL2:38:10 304654  Unattached
8208.47Lucas Wardein   Naples, FL2:39:04 233364  Florida Velo
9215.40Jeb Stewart   Tampa, FL2:40:00 176299  29 Synergy Racing Team
10222.33Fredd Matute   Fort Lauderdale, FL2:42:10 305523  25 Cool Beans Racing
11229.26Steven Mlujeak   Pembroke Pines, FL2:42:57 24653  ZMOTION Racing Team
12236.19Adam Skindel   Valrico, FL2:43:21 299567  14 University of South Florida
13243.12Ruben Delcristo   Miami, FL2:43:36 272424  BLUE STAR-BOOM Development Team
14250.05Osvaldo Delgado   Port Saint Lucie, FL2:43:39 261127  152 Treasure Coast Cyclewerks
15256.98Kurt Wagner   Miami, FL2:43:42 334714  207 Veloce Speedwear Development Team
16263.91Eric Stubbs   Gainesville, FL2:44:00 255870  13 GearLink Racing INC.
17270.84Daniel Mosquera   Weston, FL2:44:24 290001  18 Cool Beans Racing
18277.77Tomas Velez   Miami, FL2:45:33 304174  15 Veloce Speedwear Development Team
19284.70Darren Dowling   Sarasota, FL2:45:34 219566  Florida Velo
20291.63Rolando Hernandez   Tampa, FL2:46:22 286862  28 GearLink Racing INC.
21298.56Brian Domby   Tampa, FL2:46:28 226524  32 Ride N Roll Cyclery
22305.49Rainiel Sanchez   Orlando, FL2:46:28 59556  11 Cool Beans Racing
23312.42Hernan Ramirez   Delray, FL2:46:29 209704  27 Unattached
24319.35Brent Bell   Orlando, FL2:46:30 278661  35 The Fit Lab
25326.28Roy Foley   Lithia, FL2:46:30 280524  22 Florida Velo
26333.21Ashton Hulscher   West Palm Beach, FL2:46:34 348346  31 Unattached
27340.14Daniel Mendoza   Tampa, FL2:46:35 170216  23 Pista Elite
28347.07Scott Cugno   Boca Raton 2:54:44 154900  12 Unattached
29354.00Nate Adler   North Palm Beach, FL2:06:36 203360  20 Cool Beans Racing
30360.93Gunter Hermanni   Miami, FL1:21:02 163923  10 Unattached
31367.86Pablo Santa Cruz   Safety Harbor, FL1:21:08 196540  203 Florida Velo
32374.79William Hannon   Hammock, FL1:21:08 14953  33 Unattached
DNPSean Coleman   Land O Lakes, FL1:32:44 121299  221 US Military Cycling Team Fueled by FRS
DNPDan Valdes   Plantation, FL2:15:00 202522  19 Cool Beans Racing
DNPHenry Willis   Orlando, FL2:24:27 187343  30 The Fit Lab

Men - Masters 60+

 Place Points NameCity, StateTime USAC #BibTeam
1425.61Marcus Watters (1 - Cat5)   Altamonte Springs, FL1:23:25 105245  402 David's World Cycling
2443.92Timothy Stedem (1 - Cat3)   Valrico, FL1:23:26 95964  404 Best of the Bay Cyclist
3462.23Eric Lippens (2 - Cat5)   Naples, FL1:23:37 376574  416 Unattached
4480.54Pascal Jugy (1 - Cat4)   Clearwater, FL1:31:00 196983  400 Florida Velo
5498.85Michael Frenette (2 - Cat3)   Sarasota, FL1:32:04 56405  403 Unattached
6517.16fernando escobar   Dade City, FL1:40:54 390767  406 Unattached
7535.47Mark Whitney   W Chester, PA1:41:58 82395  422 Unattached
8553.78Ronald Ferreira (3 - Cat5)   Winter Haven Fl1:47:14 333484  401 Unattached

Men - Masters 50+

 Place Points NameCity, StateTime USAC #BibTeam
1260.62Shaun Redman (1 - Cat4)   Boca Raton, FL1:23:24 239227  310 AG Bikes/Bayview Cadillac
2269.88Stuart Lamb (1 - Cat3)   Tampa, FL1:23:24 288588  308 West Coast Cycling p/b STS Bikes/Harold Hart & Associates, Inc.
3279.14Mark Stein (1 - Cat2)   Tarpon Springs, FL1:23:24 33966  205 Florida Velo
4288.40george Luft (1 - Cat5)   Parkland, FL1:23:25 385890  405 Unattached
5297.66Frank Mullen (2 - Cat4)   Oldsmar, FL1:23:25 104477  364 Florida Velo
6306.92Michael Rhoades (2 - Cat3)   Tarpon Springs, FL1:23:25 202152  316 Ride N Roll Cyclery
7316.18Martin Bates (2 - Cat2)   Odessa, FL1:23:25 2867  302 WestCoastCycling PB STS Bikes/Harold Har
8325.44Julius Aulisio (3 - Cat3)   Lakeland, FL1:23:25 187514  307 Treasure Coast Cycling Association
9334.70Charles Kelly Jr (2 - Cat5)   Naples, FL1:23:25 348316  367 Naples Velo
10343.96Thomas Kerr   Tampa, FL1:23:25 71876  362 Florida Velo
11353.22Jim Griffin   Odessa, FL1:23:25 212718  363 Unattached
12362.48Will Larson (4 - Cat3)   Dunedin, FL1:23:25 196529  349 GearLink Racing INC.
13371.74Brian Davis (5 - Cat3)   Orlando, FL1:23:26 359091  300 Treasure Coast Cycling Association
14381.00Thomas Katheder (6 - Cat3)   Scottsdale, AZ1:23:26 165251  306 Orlando Road Club Inc
15390.26John Stone (7 - Cat3)   Boulder, CO1:23:27 332428  314 Treasure Coast Cycling Association
16399.52Steve Renner (3 - Cat5)   Tampa, FL1:23:26 338284  313 WestCoastCycling PB STS Bikes/Harold Har
17408.78Carlos Soler (3 - Cat2)   Longwood, FL1:23:28 104661  348 Florida Velo
18418.04Chris Wilcox (3 - Cat4)   Naples, FL1:23:36 302416  250 Jersey Shore MultiSport LLC
19427.30Downs Spitler (4 - Cat5)   Tampa, FL1:23:37 253850  315 Florida Velo
20436.56Steve Owens (4 - Cat4)   Friendship, MD1:23:37 222509  219 Annapolis Bicycle Racing Team
21445.82John Gibson (5 - Cat4)   Fleming Island, FL1:23:40 249400  303 Jacksonville Racing Club
22455.08Marshall Reeves (5 - Cat5)   Melbourne Beach, FL1:23:40 221607  369 Infinity Rac. p/b Merc Pors Audi of Mel
23464.34Steven Kurth (8 - Cat3)   Palm City, FL1:23:41 101266  304 Treasure Coast Cycling Association
24473.60Paul Bordas (6 - Cat4)   Stuart, FL1:23:42 342576  301 Treasure Coast Cycling Association
25482.86Adam Giles (1 - Cat1)   Orlando, FL1:23:43 46452  370 Orlando Velo
26492.12Joseph Trettel (7 - Cat4)   Silver Springs, FL1:23:44 59447  309 Unattached
27501.38Peter King (8 - Cat4)   Jacksonville, FL1:23:51 296941  305 VeloBrew Cycling Club
28510.64Steve Noble (9 - Cat4)   North Port, FL1:23:51 222335  311 Infinity Bike Shop
29519.90John Murphy (10 - Cat4)   Va Beach1:23:53 197671  361 GearLink Racing INC.
30529.16Kevin Eccleston (6 - Cat5)   Lake Alfred, FL1:30:01 385107  368 Lakeland Endurance Company LLC
31538.42dan dewitt   Port Matilda, PA1:30:01 369280  350 Unattached
32547.68Roman Paczka (9 - Cat3)   Sarasota, FL1:41:32 181880  320 Mainline Cycling
33Manny Rodriguez   1:43:44  360 Unattached
34Derek Robbins   1:47:35  365 Unattached
35575.46Steve Diez   Brooksville, FL2:06:28 390362  399 Unattached
36Randy Mobley   0:53:54  366 Unattached

Men - Masters 40+

 Place Points NameCity, StateTime USAC #BibTeam
1212.32Jorge Cortes (1 - Cat2)   Weston, FL2:01:10 140447  16 Cool Beans Racing
2226.47Julio Rojas (2 - Cat2)   Pompano Beach, FL2:01:10 175402  200 AG Bikes /Bayview Cadillac
3240.62Nivio Diaz (1 - Cat3)   Fort Lauderdale, FL2:01:10 299873  211 GS Palm Beach
4254.77Ralph Schroeder (2 - Cat3)   Chicago, IL2:01:10 60200  259 Tower Racing
5268.92Ken Schofield (3 - Cat2)   Juno Beach, FL2:01:11 207006  223 ZMOTION Racing Team
6283.07Alan Badia   Tampa, FL2:01:11 218267  256 Outspokin Bicycles
7297.22Blain Reeves   Pembroke Pines, FL2:01:41 71611  227 ZMOTION Racing Team
8311.37David Alexandrou (4 - Cat2)   Lutz, FL2:01:54 122403  240 West Coast Cycling p/b STS Bikes/Harold Hart & Associates, Inc.
9325.52Chuck Ford (1 - Cat4)   St. Petersburg, FL2:03:27 253095  258 Brick City/St Pete Bicycles
10339.67Chuck Holstein (3 - Cat3)   Lecanto, FL2:03:36 263775  202 Florida Velo
11353.82Graham White (4 - Cat3)   Altamonte Springs, FL2:03:36 271587  261 Florida Velo
12367.97Jose Hernandez (5 - Cat3)   Orlando, FL2:03:43 281175  257 Atlantic Shores Velo
13382.12Jose Armas (6 - Cat3)   Pembroke Pines, FL2:03:43 243186  213 AG Bikes /Bayview Cadillac
14396.27Ross Williams (5 - Cat2)   Lakeland, FL2:03:44 38289  262 Team Bent's
15410.42Russell Mitchell (1 - Cat5)   Longwood2:03:44 191900  252 Unattached
16424.57Craig Duxbury (7 - Cat3)   Orlando, FL2:03:45 10305  217 The Fit Lab
17438.72Sean Coleman (1 - Cat1)   Land O Lakes, FL2:03:47 121299  221 US Military Cycling Team Fueled by FRS
18452.87Peter Galvin (2 - Cat5)   Lake Mary, FL2:03:58 367626  253 Orlando Velo
19467.02Mark Poteet (8 - Cat3)   Tampa, FL2:05:10 232389  201 WestCoastCycling PB STS Bikes/Harold Har
20481.17Kevin Doris   Land O Lakes, FL2:09:38 225236  260 West Coast Cycling p/b STS Bikes/Harold Hart & Associates
21495.32Joseph Hamilton   Orlando, FL2:27:33 103846  215 DWC Racing
22509.47Milton Behrens (2 - Cat4)   Pompano Beach, FL1:33:08 297857  212 AG Bikes/Bayview Cadillac
DNPTim Molyneaux (Cat2)   Clermont, FL0:40:41 53461  299 Atlantic Shores Velo
DNPPablo Santa Cruz (Cat1)   Safety Harbor, FL0:40:40 196540  203 Florida Velo
DNPMichael Green   Fort Myers, FL0:40:40 292341  242 Ruca Racing
DNPMark Hewitt (Cat2)   Coconut Creek, FL0:53:56 59026  206 ZMOTION Racing Team
DNFTheodore Fleming (Cat2)   Tampa, FL2:03:45 175705  255 The Fit Lab

Men - Masters 30+

 Place Points NameCity, StateTime USAC #BibTeam
1189.99Pedro Medina (1 - Cat1)   Orlando, FL2:01:09 177274  156 Atlantic Shores Velo
2200.92Ronaldo Tavares (1 - Cat2)   Port Saint Lucie, FL2:01:10 235207  151 Treasure Coast Cyclewerks
3211.85Ward Bates (2 - Cat2)   Maitland, FL2:01:10 2871  155 The Fit Lab
4222.78Vance James (2 - Cat1)   Lakeland, FL2:01:11 47935  163 Synergy Racing Team
5233.71Tic Bowen (1 - Cat4)   Clermont, FL2:01:12 277005  174 B3 cycling
6244.64Andres Munera (3 - Cat2)   Tampa, FL2:01:12 307870  150 Synergy Racing Team
7255.57Yampier Herrera (1 - Cat5)   Orlando, FL2:03:35 376307  171 Atlantic Shores Velo
8266.50Lazaro Mencia (4 - Cat2)   Orlando, FL2:03:43 268717  21 Atlantic Shores Velo
9277.43Vincent Cook (1 - Cat3)   Palm Harbor, FL2:03:43 7670  110 Synergy Racing Team
10288.36Sean Barry (5 - Cat2)   Tampa, FL2:03:43 288171  117 Ride N Roll Cyclery
11299.29Osvaldo Delgado (6 - Cat2)   Port Saint Lucie, FL2:03:44 261127  152 Treasure Coast Cyclewerks
12310.22Jeremy Hauff (2 - Cat4)   Clermont, FL2:03:44 316662  115 Compass Cycling Team
13321.15Luis Pou   Orlando, FL2:03:45 170642  176 Unattached
14332.08Jorge Garcia (2 - Cat3)   Cooper City, FL2:03:48 65563  216 Cool Beans Racing
15343.01Eric Specht (3 - Cat4)   Windermere, FL2:04:29 305631  119 Compass Cycling Team
16353.94Anthony Prioli (3 - Cat1)   Clearwater, FL2:06:29 28734  112 Synergy Racing Team
17364.87Joshua Drew (7 - Cat2)   Orlando, FL2:06:30 10026  109 Synergy Racing Team
18375.80Jason Vandermay (8 - Cat2)   Orlando, FL2:10:59 155384  175 B3 cycling
DNPDavid Suggs (Cat4)   Orlando, FL0:00:12 367125  118 Compass Cycling Team
DNPSean Stanton (Cat4)   Windermere, FL1:27:48 308557  116 Compass Cycling Team
DNPCorbett Brown (Cat2)   Mount Dora, FL0:40:41 84898  173 Atlantic Shores Velo
DNPRichard Dybdahl (Cat5)   Eustis, FL0:48:25 358668  111 Pure Racing
DNPDavid Munoz (Cat2)   Orlando, FL2:02:05 241035  154 Atlantic Shores Velo

Men - Junior 15-16

 Place Points NameCity, StateTime USAC #BibTeam
1396.26Alex Couture   Tampa, FL0:43:27 359791  321 Relaj Cycling
2413.87Robert Comfort   St Johns, FL0:43:29 340506  323 WestCoastCycling PB STS Bikes/Harold Har
3431.48Sandor A Delgado   Hialeah, FL0:44:19 316004  105 Interactive Metronome Development
4449.09Nicholas Garcia   Cooper City, FL0:44:29 389353  317 Interactive Metronome Development
5466.70Nathaniel Worcester   Orlando, FL0:46:49 367471  322 Orlando Road Club Inc
6484.31Brent White   Green Cove Springs, FL0:47:46 360806  318 Unattached

Men - Junior 13-14

 Place Points NameCity, StateTime USAC #BibTeam
1470.43Austin Wright   Stuart, FL0:18:46 321612  999 Treasure Coast Cycling Association
2530.22Marjolein Pawlus   Sarasota, FL0:18:46 274095  104 Cycle Sport Concepts Tampa
3590.01Aaron Crawford   Fort Collins, CO0:21:14 380214  254 Unattached

Men - Cat 3

 Place Points NameCity, StateTime USAC #BibTeam
1241.74Bruno Moreira   Riverview, FL2:39:42 292511  354 Unattached
2249.70Armando Hernandez   Tampa, FL2:43:38 336604  352 University Bicycle Center
3257.66Dave Lewis   Sarasota, FL2:45:30 336294  340 Unattached
4265.62Eduardo Arboleda   Coconutcreek, FL2:45:33 318550  342 Interactive Metronome Development
5273.58Jorge Rodriguez   Hialeah, FL2:46:28 315470  336 Unattached
6281.54Jeremy Smith   Apopka, FL2:46:29 334084  375 Hoover's Essential Health Market
7289.50Yosvani Rosell   Tampa, FL2:46:29 305727  355 University Bicycle Center
8297.46Roberto Chamizo   Spring Hill, FL2:46:29 95714  334 University Bicycle Center
9305.42Bradley Gordon   Longwood, FL2:46:30 280638  353 Florida Velo
10313.38Michael Hernandez   Clermont, FL2:46:30 296605  359 Slipstream-Craddock Junior Development
11321.34Casey Braga   Longwood, FL2:46:30 282133  381 ZMOTION Racing Team
12329.30James Hendry   Jacksonville, FL2:46:30 138975  382 VeloBrew Cycling Club
13337.26Nicolas Patton   Orlando, FL2:46:30 360352  325 Hoover's Essential Health Market
14345.22Sebastian Morfin   Weston, FL2:46:30 313408  338 Interactive Metronome Development
15353.18Ernie Pena   Tampa, FL2:46:31 368468  356 University Bicycle Center
16361.14Jan Heylen   Clearwater, FL2:46:31 274768  383 Florida Velo
17369.10Paul Williams   Largo, FL2:46:31 38404  379 Brick City/St Pete Bicycles
18377.06Andrea Tosolini   Gainesville, FL2:46:34 226652  357 352 Racing p/b Bikes and More
19385.02Julio Prida   Tampa, FL2:46:35 343850  376 University Bicycle Center
20392.98Abel Quintana   Miami, FL2:46:45 312152  337 Unattached
21400.94Alex Couture   Tampa, FL3:02:07 359791  321 Relaj Cycling
22408.90Oscar Jimenez   Swannanoa, NC2:02:44 357205  335 Unattached
23416.86Michael Suver   Mount Dora, FL2:10:55 271441  344 University of South Florida
24424.82Paulo Silva   Winter Garden, FL2:12:55 353494  341 EBP Racing Team
25432.78Jason Brandt   Tulsa, OK2:14:04 287929  380 Tom's Bicycles
26440.74James Gunter   Orange Park, FL2:57:22 351932  377 VeloBrew Cycling Club
27448.70David Monismith   Gainesville, FL1:21:06 257920  358 352 Racing p/b Bikes and More
28456.66Phil Moore   West Melbourne, FL0:40:39 300685  345 Space Coast Velo Sport

Men - Cat 4

 Place Points NameCity, StateTime USAC #BibTeam
1362.42Dylan Hayda   Warren2:07:02 369648  419 WAS Labs Cycling
2367.65Ihorys Casals   Tampa, FL2:07:02 338384  269 Unattached
3372.88Henry Pavlik   Lithia, FL2:07:02 286909  413 Team Ajs Bikes and Boards
4378.11Julian Marin   Orlando, FL2:07:02 317254  243 Orlando Road Club Inc
5383.34John Gilbert   Fort Lauderdale2:07:02 347582  411 Interactive Metronome Development
6388.57Peter Davis   Naples, FL2:07:02 293076  264 Florida Velo
7393.80Scott Lameier   Valrico, FL2:07:02 305247  415 University Bicycle Center
8399.03Joel Gayle   Melbourne, FL2:07:02 368830  241 University of Central Florida
9404.26Nicholas Parlato   Rockville, MD2:07:02 319640  220 All American Bicycle Club Inc.
10409.49Juan Marrufo   Lithia, FL2:07:02 362686  245 University Bicycle Center
11414.72Jason Simnowitz   Miami, FL2:07:02 333696  209 EBP Racing Team
12419.95Shawn Faynik   Orlando, FL2:07:02 307695  267 Hoover's Essential Health Market
13425.18Christopher Rupe   Seffner2:07:03 359278  420 Unattached
14430.41Daryle Glaser   Tampa, FL2:07:03 329482  233 Unattached
15435.64Alan Korhonen   Lakeland, FL2:07:03 332882  412 GearLink Racing INC.
16440.87Byron Becker   St. Petersburg, FL2:07:03 304636  231 GearLink Racing INC.
17446.10Alexis Fernandez   Tampa, FL2:07:03 148262  268 Florida Velo
18451.33David Pavlik   Lithia, FL2:07:04 305643  413 Team Ajs Bikes and Boards
19456.56Dave Severn   Cape Canaveral, FL2:07:04 299991  225 Infinity Bike Shop
20461.79Matthew Strongin   Miami Shores, FL2:07:04 280046  208 Cool Beans Racing
21467.02Ricky Zanker   Long Beach, CA2:07:04 327796  210 University of South Florida
22472.25Rhett Houstoun   Flagler Beach, FL2:07:06 365039  409 Team Primal Racing
23477.48James Maffucci   Clearwater, FL2:07:09 265487  414 Unattached
24482.71Hugo Casanas   Tampa, FL2:07:21 306446  249 GearLink Racing INC.
25487.94William Duggan   Saint Augustine, FL2:07:26 330024  270 Unattached
26493.17Rodrigo Barreto   Portsaintlucie, FL2:07:26 308426  263 Unattached
27498.40Robert Paulsen   Mesa, AZ2:07:27 354802  247 Team Primal Racing
28503.63Edwars Matute   Fort Lauderdale, FL2:08:02 353154  248 Unattached
29508.86Marc Boults   Tampa, FL2:08:41 335312  407 Florida Velo
30514.09Chris Wilcox   Naples, FL2:11:34 302416  250 Jersey Shore MultiSport LLC
31519.32JuanCarlos Rivera   Valrico, FL2:12:33 362061  408 University Bicycle Center
32524.55Jonathan Lopez   Gainesville, FL2:25:15 355584  246 352 Racing p/b Bikes and More
33529.78Jeff Bukovan   Palmetto, FL2:28:03 212674  272 Unattached
34535.01Justin Ersland   Jacksonville, FL2:41:53 354754  284 Team Primal Racing
35540.24Keith Bukovan   Odessa, FL1:55:31 340162  230 Unattached
36Michael Roberson   0:43:34  272 Unattached
37550.70Steve Owens   Friendship, MD0:43:36 222509  219 Annapolis Bicycle Racing Team
38555.93James Adcock   Texarkana Tx0:46:34 334904  218 Cool Beans Racing
39561.16Todd Lewis   Louisville, KY0:00:28 355256  417 Unattached
40566.39Charles Casagrande   Bradenton, FL0:00:29 338806  265 Unattached
DNPKyle Dallmann   Tampa, FL1:47:51 279999  244 Florida Velo
DNPAngel Cantero   Tampa, FL1:44:56 290108  232 GearLink Racing INC.

Men - Cat 5

 Place Points NameCity, StateTime USAC #BibTeam
1449.96Colin Hogue   Largo, FL2:07:02 390711  128 Unattached
2454.48Thomas Trevisani   Winter Park, FL2:07:02 154092  100 (RS) 3 Racing
3459.00Jon Mccabe   Odessa, FL2:07:02 265645  108 Unattached
4463.52Vasilios Palekis   Odessa, FL2:07:02 364771  107 University Bicycle Center
5468.04Raymond Read   Melbourne, FL2:07:03 367980  102 Cool Beans Racing
6christopher collins   2:07:03  182 Unattached
7lukas harden   2:07:04  186 Unattached
8481.60Marcin Rutkowski   Palm Harbor, FL2:07:04 375712  184 GearLink Racing INC.
10490.64Yampier Herrera   Orlando, FL2:07:04 376307  171 Atlantic Shores Velo
11Andrew Long   2:07:05  179 Unattached
12499.68Carlos Rios   Altamonte Springs, FL2:07:24 193988  121 floridaracing.net
13504.20Cornelis Weemhoff   Ponte Vedra, FL2:09:13 380490  124 Unattached
14508.72Robert Dejose   Tampa, FL2:15:22 368478  131 Unattached
15Derek Birch   2:15:40  122 Unattached
16carlos torres   2:15:45  187 Unattached
17522.28David Duke   Tampa, FL2:25:35 390435  130 Unattached
18526.80Jakub Rehacek   Brooksville, FL2:27:18 366178  139 Unattached
19531.32Ryan Dyke   Gainesville, FL2:30:12 390829  134 Unattached
20535.84Thomas McNeill   Fruitland Park Fl2:32:25 391146  168 Unattached
21540.36Kevin Koth   Port Orange, FL2:32:33 376561  125 Unattached
22544.88Christian Trucco   Gainesville, FL2:32:39 390808  126 Unattached
23549.40Muhammad Rahmani   Oviedo, FL2:32:49 341276  106 University of Florida
24553.92Kyle Casteline   Lutz2:33:39 378395  133 University of South Florida
25Christopher Ewing   2:41:19  183 Unattached
26562.96Jeremy Arguelles   Deltona, FL2:41:22 339564  178 Unattached
27567.48junio almonte   Lithia, FL2:43:24 365942  181 University Bicycle Center
28572.00Zachary White   Tampa0:50:26 367288  103 University of South Florida
29576.52Alesandro Figueroa   Spring Hill, FL0:59:26 356699  129 Unattached
30jorge perez   1:24:47  185 Unattached
31585.56Stephen Zaffiri   Dunedin, FL0:43:32 353110  172 Unattached
32590.08Randall DIAL   Tampa, FL0:46:47 122337  132 Team American Classic
33594.60Ricardo Almonte   Pompano Beach, FL0:00:28 384672  127 Unattached
DNPorelvis Martinez   1:41:57  159 Unattached
DNPkyle markel   1:47:56  188 Unattached
DNPKenyon Rice   Tampa, FL1:44:56 198071  101 Unattached

Women - Cat 1/2/3

 Place Points NameCity, StateTime USAC #BibTeam
1366.23Alexis Zink (1 - Cat2)   Bethesda, MD1:34:33 336976  164 National Capital Velo Club/UnitedHealthcare
2382.51Liz Gerrity (2 - Cat2)   Tallahassee, FL1:34:33 307001  165 Team Kenda
3398.79Rebecca Clark (3 - Cat2)   Lakeland, FL1:35:09 151788  177 Unattached
4415.07Kimberly Vaughan (4 - Cat2)   Odessa, FL1:35:37 242810  162 Florida Velo
5431.35Dawn Decaminada (1 - Cat3)   Lakeland, FL1:35:37 360228  166 Team Bent's
6447.63Samantha Heinrich (5 - Cat2)   Spring Hill, FL1:40:26 333276  157 Florida Velo

Women - Cat 3/4

 Place Points NameCity, StateTime USAC #BibTeam
1540.00amy good (1 - Cat4)   Delray Beach, FL1:35:36 366564  372 Dog House Racing
2545.00Tish Kelly   Naples, FL1:35:37 307387  339 Florida Velo
3550.00Grace Salas (2 - Cat4)   Tampa, FL1:35:37 365310  351 University Bicycle Center
4Laura Dewitt   1:35:37  371 Florida Velo
5560.00Laurie King (3 - Cat4)   Saint Petersburg, FL1:35:38 341168  324 Unattached
6565.00sarah simonetti   Philadelphia1:36:19 384289  328 (RS) 3 Racing
7570.00Catherine Davis (4 - Cat4)   Naples, FL1:40:16 366507  374 Unattached
8575.00Gabrielle Vazquez   Spring Hill1:43:42 381779  343 Unattached
9580.00Joanna Nestler   Spring Hill, FL1:45:47 390531  327 Unattached
10585.00Robin Barrett   Brooksville, FL2:05:14 390663  330 Unattached
11gryssel Arguellas   1:40:23  266 Unattached
DNPbettina anderson   0:58:02  373 Unattached

Mixed - Junior 10-12

 Place Points NameCity, StateTime USAC #BibTeam
1524.09Charlie Wright   Stuart, FL0:19:28 321610  226 Treasure Coast Cycling Association
2540.57Ava Sykes   Seminole, FL0:21:10 364652  170 Outspokin Bicycles
3557.05Jackson Mehr   Clearwater, FL0:21:41 365097  120 Outspokin Bicycles
4573.53clayton zinnert   Orlando, FL0:21:44 364633  319 Unattached
5590.01Kevin Eccleston   Lake Alfred, FL0:26:37 385107  169 Lakeland Endurance Company LLC

Report missing or incorrect license numbers

Volkswagen
CUORESpyShimanoBonk BreakerUSACDFSierra Nevada
UCI USA Cycling is the official governing body for all disciplines of competitive cycling in the United States. The 501c3, membership-based organization aims both to achieve sustained success in international cycling competition and to grow competitive cycling in America while delivering an exceptional customer experience.
View Children's Online Privacy Protection Policy
US Olympic Committee